Time;durP1;ratioP1;P1;durP2;ratioP2;P2;SDS_P1;SDS_P2;PMS_P1;PMS_P2;Temp;Humidity;BMP_temperature;BMP_pressure;BME280_temperature;BME280_humidity;BME280_pressure;Samples;Min_cycle;Max_cycle;Signal;HPM_P1;HPM_P2
2023/05/04 00:01:31;;;;;;;2.67;2.47;;;11.00;81.00;;;;;;5102946;28;20660;-70
2023/05/04 00:03:58;;;;;;;5.47;2.70;;;11.10;79.90;;;;;;5099163;28;20634;-70
2023/05/04 00:06:24;;;;;;;4.03;2.70;;;11.20;79.50;;;;;;5093813;28;21240;-70
2023/05/04 00:08:52;;;;;;;2.47;2.23;;;11.20;78.20;;;;;;5107086;28;20633;-70
2023/05/04 00:11:19;;;;;;;2.00;1.80;;;11.20;77.80;;;;;;5093872;28;20662;-69
2023/05/04 00:13:46;;;;;;;4.03;2.13;;;11.20;77.00;;;;;;5087775;28;21003;-68
2023/05/04 00:16:13;;;;;;;2.90;2.07;;;11.30;76.00;;;;;;5087568;28;20657;-69
2023/05/04 00:18:40;;;;;;;2.77;2.40;;;11.30;77.70;;;;;;5091853;28;20665;-69
2023/05/04 00:21:07;;;;;;;4.10;2.80;;;11.30;75.70;;;;;;5107663;28;20654;-69
2023/05/04 00:23:34;;;;;;;2.87;2.67;;;11.30;76.30;;;;;;5108400;28;20985;-69
2023/05/04 00:26:02;;;;;;;3.57;2.30;;;11.30;77.40;;;;;;5107292;28;20744;-70
2023/05/04 00:28:29;;;;;;;2.10;1.63;;;11.20;77.10;;;;;;5107013;28;21006;-69
2023/05/04 00:30:56;;;;;;;3.20;2.60;;;11.20;78.00;;;;;;5107724;28;20667;-70
2023/05/04 00:33:23;;;;;;;4.00;2.20;;;11.20;76.60;;;;;;5108209;28;20619;-69
2023/05/04 00:35:50;;;;;;;6.17;3.00;;;11.30;77.60;;;;;;5108029;28;21209;-70
2023/05/04 00:38:18;;;;;;;4.00;1.90;;;11.20;78.00;;;;;;5107350;28;21016;-70
2023/05/04 00:40:44;;;;;;;3.47;3.17;;;11.20;78.00;;;;;;5107447;28;20650;-70
2023/05/04 00:43:13;;;;;;;4.73;2.63;;;11.20;78.10;;;;;;5107751;28;20624;-69
2023/05/04 00:45:40;;;;;;;3.37;3.07;;;11.20;77.50;;;;;;5107939;28;20646;-70
2023/05/04 00:48:08;;;;;;;2.90;2.47;;;11.10;77.90;;;;;;5107945;28;20659;-70
2023/05/04 00:50:35;;;;;;;3.60;2.70;;;11.10;78.60;;;;;;5106948;28;21251;-69
2023/05/04 00:53:09;;;;;;;2.60;2.40;;;11.20;77.90;;;;;;5091947;28;20638;-69
2023/05/04 00:55:38;;;;;;;2.70;2.37;;;11.10;78.80;;;;;;5104520;28;20653;-69
2023/05/04 00:58:06;;;;;;;2.50;2.30;;;11.10;78.80;;;;;;5094072;28;20664;-69
2023/05/04 01:00:35;;;;;;;2.83;2.40;;;11.10;78.80;;;;;;5100517;28;20647;-70
2023/05/04 01:03:01;;;;;;;3.60;2.63;;;11.10;79.20;;;;;;5103473;28;21236;-70
2023/05/04 01:05:35;;;;;;;8.40;3.00;;;11.10;79.00;;;;;;5102632;28;20660;-70
2023/05/04 01:08:09;;;;;;;3.97;3.07;;;11.10;78.90;;;;;;5110111;28;20633;-71
2023/05/04 01:10:42;;;;;;;4.40;3.30;;;11.10;79.00;;;;;;5102068;28;20750;-70
2023/05/04 01:13:12;;;;;;;4.93;3.07;;;11.10;79.50;;;;;;5091143;28;20737;-70
2023/05/04 01:15:42;;;;;;;5.43;3.60;;;11.20;79.80;;;;;;5091236;28;20660;-70
2023/05/04 01:18:09;;;;;;;5.50;3.87;;;11.20;80.40;;;;;;5090650;28;20755;-70
2023/05/04 01:20:36;;;;;;;3.60;3.30;;;11.10;81.20;;;;;;5096556;28;20705;-70
2023/05/04 01:23:06;;;;;;;3.03;2.77;;;11.10;82.00;;;;;;5091588;28;20627;-70
2023/05/04 01:25:39;;;;;;;2.63;2.40;;;11.00;82.40;;;;;;5089936;28;20756;-70
2023/05/04 01:28:10;;;;;;;5.73;4.60;;;11.00;83.10;;;;;;5090562;28;20642;-70
2023/05/04 01:30:40;;;;;;;4.37;2.80;;;10.90;83.40;;;;;;5095377;28;20990;-70
2023/05/04 01:33:07;;;;;;;3.73;2.83;;;10.80;84.40;;;;;;5108587;28;20635;-70
2023/05/04 01:35:34;;;;;;;4.43;3.03;;;10.70;84.70;;;;;;5110166;28;20659;-70
2023/05/04 01:38:02;;;;;;;5.10;3.80;;;10.70;85.30;;;;;;5109743;28;20662;-70
2023/05/04 01:40:30;;;;;;;6.20;3.50;;;10.70;84.90;;;;;;5107811;28;21286;-70
2023/05/04 01:42:57;;;;;;;3.80;3.10;;;10.70;86.00;;;;;;5091121;28;21023;-70
2023/05/04 01:45:25;;;;;;;8.40;5.13;;;10.70;85.80;;;;;;5093716;28;20640;-70
2023/05/04 01:47:53;;;;;;;4.93;3.53;;;10.60;86.60;;;;;;5089390;28;20960;-70
2023/05/04 01:50:22;;;;;;;5.20;3.33;;;10.60;86.60;;;;;;5097212;28;20621;-70
2023/05/04 01:52:49;;;;;;;6.57;4.40;;;10.50;87.70;;;;;;5089251;28;21127;-70
2023/05/04 01:55:18;;;;;;;3.93;3.23;;;10.50;87.20;;;;;;5090555;28;20634;-70
2023/05/04 01:57:46;;;;;;;6.00;4.03;;;10.40;87.30;;;;;;5103379;28;20654;-70
2023/05/04 02:00:15;;;;;;;5.27;3.83;;;10.40;88.40;;;;;;5105632;28;20982;-70
2023/05/04 02:02:44;;;;;;;3.57;3.00;;;10.40;88.10;;;;;;5107241;28;20684;-70
2023/05/04 02:05:11;;;;;;;7.10;4.20;;;10.40;88.10;;;;;;5096429;28;20646;-70
2023/05/04 02:07:38;;;;;;;4.07;3.63;;;10.40;88.90;;;;;;5107674;28;20626;-70
2023/05/04 02:10:06;;;;;;;5.13;3.30;;;10.30;88.80;;;;;;5109156;28;20632;-70
2023/05/04 02:12:33;;;;;;;5.37;3.67;;;10.30;88.90;;;;;;5096630;28;21241;-70
2023/05/04 02:15:01;;;;;;;4.63;3.30;;;10.20;89.20;;;;;;5089825;28;20658;-70
2023/05/04 02:17:28;;;;;;;6.97;3.70;;;10.40;88.70;;;;;;5100971;28;20763;-70
2023/05/04 02:19:55;;;;;;;3.17;2.70;;;10.50;88.50;;;;;;5109144;27;20723;-70
2023/05/04 02:22:21;;;;;;;6.30;4.00;;;10.40;88.20;;;;;;5094101;28;20651;-70
2023/05/04 02:24:49;;;;;;;3.17;2.77;;;10.50;87.80;;;;;;5089447;28;20624;-70
2023/05/04 02:27:16;;;;;;;8.60;4.93;;;10.50;87.50;;;;;;5088933;28;20838;-70
2023/05/04 02:29:44;;;;;;;6.47;5.03;;;10.50;88.00;;;;;;5106913;28;20631;-70
2023/05/04 02:32:13;;;;;;;4.53;3.33;;;10.40;88.70;;;;;;5103437;28;20760;-70
2023/05/04 02:34:42;;;;;;;7.77;4.20;;;10.30;89.70;;;;;;5092988;28;20625;-70
2023/05/04 02:37:10;;;;;;;4.67;2.93;;;10.30;89.70;;;;;;5108889;28;20686;-70
2023/05/04 02:39:36;;;;;;;3.97;3.57;;;10.10;89.20;;;;;;5101353;28;21080;-70
2023/05/04 02:42:03;;;;;;;5.23;3.73;;;10.00;90.20;;;;;;5106680;28;20641;-70
2023/05/04 02:44:30;;;;;;;6.60;3.77;;;10.00;90.40;;;;;;5094153;28;20628;-70
2023/05/04 02:46:58;;;;;;;6.07;3.70;;;10.10;90.10;;;;;;5095097;28;20660;-70
2023/05/04 02:49:27;;;;;;;7.13;4.73;;;10.10;90.20;;;;;;5108660;28;20631;-70
2023/05/04 02:51:54;;;;;;;6.23;3.80;;;10.00;90.70;;;;;;5108655;28;20713;-70
2023/05/04 02:54:21;;;;;;;5.30;3.67;;;10.00;90.80;;;;;;5097737;28;20626;-70
2023/05/04 02:56:50;;;;;;;3.87;3.00;;;9.70;91.40;;;;;;5094549;28;20707;-70
2023/05/04 02:59:17;;;;;;;3.60;3.30;;;9.70;91.70;;;;;;5105836;28;20668;-70
2023/05/04 03:01:44;;;;;;;3.07;2.77;;;9.50;91.90;;;;;;5088958;28;20654;-70
2023/05/04 03:04:12;;;;;;;5.47;4.17;;;9.40;92.20;;;;;;5095134;28;20675;-70
2023/05/04 03:06:41;;;;;;;4.80;3.60;;;9.50;92.30;;;;;;5100675;28;20671;-70
2023/05/04 03:09:09;;;;;;;5.07;3.40;;;9.70;92.20;;;;;;5087630;28;20635;-70
2023/05/04 03:11:36;;;;;;;7.53;4.40;;;9.70;92.00;;;;;;5096823;28;20658;-70
2023/05/04 03:14:03;;;;;;;5.43;5.00;;;9.90;91.50;;;;;;5099957;28;20639;-70
2023/05/04 03:16:30;;;;;;;4.60;3.90;;;9.80;91.70;;;;;;5108108;28;20641;-70
2023/05/04 03:18:57;;;;;;;4.00;3.70;;;9.90;91.90;;;;;;5107352;28;20666;-70
2023/05/04 03:21:24;;;;;;;3.90;3.60;;;9.80;91.70;;;;;;5099142;28;20663;-70
2023/05/04 03:23:52;;;;;;;4.10;3.70;;;9.80;91.80;;;;;;5088642;28;20722;-72
2023/05/04 03:26:19;;;;;;;4.97;3.50;;;9.70;91.80;;;;;;5090667;28;20655;-71
2023/05/04 03:28:45;;;;;;;6.20;3.97;;;9.60;92.50;;;;;;5107500;28;20615;-68
2023/05/04 03:31:12;;;;;;;5.50;3.20;;;9.60;92.80;;;;;;5094099;28;20783;-70
2023/05/04 03:33:39;;;;;;;5.90;4.60;;;9.50;93.30;;;;;;5089106;28;20729;-70
2023/05/04 03:36:06;;;;;;;7.83;4.37;;;9.30;93.70;;;;;;5087941;28;20732;-70
2023/05/04 03:38:33;;;;;;;4.93;3.60;;;9.20;93.30;;;;;;5107076;28;20844;-69
2023/05/04 03:41:01;;;;;;;3.83;3.17;;;9.20;93.70;;;;;;5105853;28;20765;-69
2023/05/04 03:43:28;;;;;;;5.97;3.80;;;9.30;93.80;;;;;;5107149;28;21170;-70
2023/05/04 03:45:54;;;;;;;4.30;4.00;;;9.30;94.10;;;;;;5106990;28;20657;-69
2023/05/04 03:48:21;;;;;;;4.57;3.43;;;9.30;93.70;;;;;;5086937;28;21192;-70
2023/05/04 03:50:48;;;;;;;3.50;3.10;;;9.40;93.10;;;;;;5090403;28;21187;-70
2023/05/04 03:53:15;;;;;;;4.53;3.50;;;9.40;92.80;;;;;;5103357;28;20628;-69
2023/05/04 03:55:42;;;;;;;5.97;4.40;;;9.30;93.00;;;;;;5088145;28;20992;-69
2023/05/04 03:58:10;;;;;;;6.00;3.77;;;9.30;93.20;;;;;;5103793;28;20662;-69
2023/05/04 04:00:37;;;;;;;5.73;3.43;;;9.30;93.20;;;;;;5106731;28;20722;-70
2023/05/04 04:03:03;;;;;;;8.37;4.97;;;9.30;93.70;;;;;;5097335;28;20627;-69
2023/05/04 04:05:30;;;;;;;8.37;4.67;;;9.30;94.00;;;;;;5088115;28;20659;-69
2023/05/04 04:07:57;;;;;;;5.60;3.77;;;9.20;93.60;;;;;;5087863;28;21179;-69
2023/05/04 04:10:24;;;;;;;7.93;5.57;;;9.10;93.70;;;;;;5090970;28;20661;-70
2023/05/04 04:12:51;;;;;;;6.23;4.07;;;9.10;93.80;;;;;;5092960;28;20622;-69
2023/05/04 04:15:19;;;;;;;4.73;4.00;;;9.10;93.80;;;;;;5093943;28;20628;-69
2023/05/04 04:17:45;;;;;;;6.07;4.20;;;9.20;94.20;;;;;;5087999;28;21023;-69
2023/05/04 04:20:13;;;;;;;6.63;4.37;;;9.20;94.30;;;;;;5094372;28;20971;-69
2023/05/04 04:22:39;;;;;;;5.50;4.20;;;9.20;95.20;;;;;;5108361;28;21003;-69
2023/05/04 04:25:07;;;;;;;3.40;3.17;;;9.10;95.10;;;;;;5106905;28;20641;-69
2023/05/04 04:27:35;;;;;;;5.73;4.83;;;9.00;95.80;;;;;;5089967;28;21080;-69
2023/05/04 04:30:02;;;;;;;4.87;4.30;;;9.00;95.80;;;;;;5095729;28;21216;-69
2023/05/04 04:32:32;;;;;;;5.53;4.53;;;8.90;96.10;;;;;;5092490;28;20638;-69
2023/05/04 04:34:59;;;;;;;4.47;3.80;;;8.90;95.30;;;;;;5091447;28;20632;-70
2023/05/04 04:37:27;;;;;;;6.10;5.03;;;9.00;95.40;;;;;;5091719;28;20753;-69
2023/05/04 04:39:53;;;;;;;3.30;2.80;;;9.00;95.10;;;;;;5098675;28;20665;-70
2023/05/04 04:42:20;;;;;;;4.03;3.47;;;9.00;95.30;;;;;;5103882;28;20655;-69
2023/05/04 04:44:48;;;;;;;7.83;5.37;;;9.00;96.20;;;;;;5102770;28;20749;-70
2023/05/04 04:47:15;;;;;;;8.43;4.20;;;9.00;96.40;;;;;;5090669;28;21259;-70
2023/05/04 04:49:43;;;;;;;4.50;2.87;;;8.90;96.60;;;;;;5096461;28;20630;-70
2023/05/04 04:52:10;;;;;;;4.43;3.90;;;9.00;97.10;;;;;;5104396;28;21246;-70
2023/05/04 04:54:37;;;;;;;6.50;4.77;;;9.00;96.90;;;;;;5099185;28;20624;-70
2023/05/04 04:57:04;;;;;;;4.47;4.07;;;9.10;97.20;;;;;;5090410;28;21213;-69
2023/05/04 04:59:31;;;;;;;5.83;4.30;;;9.10;96.50;;;;;;5101652;28;20675;-69
2023/05/04 05:01:59;;;;;;;8.43;3.20;;;9.20;96.20;;;;;;5109411;28;20644;-70
2023/05/04 05:04:26;;;;;;;5.73;4.47;;;9.30;96.50;;;;;;5100296;28;20635;-70
2023/05/04 05:06:54;;;;;;;6.53;4.40;;;9.40;96.10;;;;;;5090818;28;20655;-71
2023/05/04 05:09:21;;;;;;;6.10;4.57;;;9.60;95.60;;;;;;5090067;28;20630;-71
2023/05/04 05:11:47;;;;;;;5.33;4.83;;;9.60;95.10;;;;;;5107184;28;21259;-71
2023/05/04 05:14:14;;;;;;;8.30;4.70;;;9.70;95.00;;;;;;5096991;28;20627;-71
2023/05/04 05:16:41;;;;;;;8.60;4.53;;;9.80;95.20;;;;;;5107523;28;20654;-72
2023/05/04 05:19:08;;;;;;;5.17;3.50;;;9.90;94.70;;;;;;5110802;28;21228;-71
2023/05/04 05:21:34;;;;;;;5.37;4.83;;;10.00;93.90;;;;;;5101003;28;20668;-72
2023/05/04 05:24:03;;;;;;;7.27;5.33;;;10.00;94.20;;;;;;5090915;28;20743;-71
2023/05/04 05:26:29;;;;;;;4.13;3.83;;;10.10;94.30;;;;;;5096628;28;21152;-71
2023/05/04 05:28:56;;;;;;;6.73;3.80;;;10.10;94.30;;;;;;5094652;28;20626;-71
2023/05/04 05:31:23;;;;;;;5.47;3.93;;;10.20;94.30;;;;;;5101347;28;20660;-72
2023/05/04 05:33:50;;;;;;;4.63;4.23;;;10.20;94.20;;;;;;5110780;28;20626;-72
2023/05/04 05:36:17;;;;;;;10.97;5.17;;;10.30;94.20;;;;;;5110295;27;20676;-72
2023/05/04 05:38:44;;;;;;;8.07;4.80;;;10.50;94.00;;;;;;5109288;28;20670;-71
2023/05/04 05:41:12;;;;;;;5.77;4.23;;;10.50;93.70;;;;;;5109961;28;20649;-72
2023/05/04 05:43:40;;;;;;;6.47;4.47;;;10.50;93.60;;;;;;5109700;28;20631;-71
2023/05/04 05:46:07;;;;;;;9.57;5.80;;;10.40;93.80;;;;;;5110329;28;20657;-72
2023/05/04 05:48:34;;;;;;;6.00;4.20;;;10.70;93.80;;;;;;5110348;28;21139;-71
2023/05/04 05:51:00;;;;;;;5.73;5.00;;;10.90;93.60;;;;;;5110599;28;20658;-72
2023/05/04 05:53:27;;;;;;;6.73;5.47;;;11.00;93.30;;;;;;5109982;27;20609;-72
2023/05/04 05:55:54;;;;;;;4.40;4.10;;;11.00;93.20;;;;;;5110555;28;20651;-72
2023/05/04 05:58:22;;;;;;;7.53;4.47;;;11.10;93.20;;;;;;5109923;28;20629;-71
2023/05/04 06:00:49;;;;;;;8.83;4.80;;;11.30;93.10;;;;;;5110076;28;20661;-72
2023/05/04 06:03:16;;;;;;;7.77;4.90;;;11.30;93.00;;;;;;5110179;28;20628;-71
2023/05/04 06:05:42;;;;;;;5.27;4.50;;;11.30;92.50;;;;;;5110054;28;20653;-72
2023/05/04 06:08:09;;;;;;;7.73;4.97;;;11.40;92.50;;;;;;5109844;28;20618;-72
2023/05/04 06:10:36;;;;;;;6.47;4.70;;;11.50;92.60;;;;;;5109602;28;20649;-72
2023/05/04 06:13:03;;;;;;;10.20;4.70;;;11.70;92.60;;;;;;5110069;28;20624;-72
2023/05/04 06:15:31;;;;;;;7.13;4.63;;;11.70;92.10;;;;;;5110201;28;20657;-72
2023/05/04 06:17:57;;;;;;;4.70;4.17;;;11.70;92.30;;;;;;5109805;28;21263;-72
2023/05/04 06:20:25;;;;;;;7.50;4.73;;;11.80;92.70;;;;;;5109100;28;21229;-72
2023/05/04 06:22:51;;;;;;;5.20;4.67;;;11.90;92.80;;;;;;5110152;28;20630;-72
2023/05/04 06:25:18;;;;;;;6.27;4.90;;;11.90;92.10;;;;;;5109792;28;20619;-72
2023/05/04 06:27:45;;;;;;;7.30;4.90;;;12.00;92.40;;;;;;5110073;27;20920;-72
2023/05/04 06:30:13;;;;;;;5.40;4.67;;;12.10;92.50;;;;;;5109167;28;20717;-72
2023/05/04 06:32:41;;;;;;;4.33;3.90;;;12.20;92.50;;;;;;5109663;28;20682;-72
2023/05/04 06:35:09;;;;;;;5.33;4.10;;;12.30;92.40;;;;;;5108724;28;20622;-72
2023/05/04 06:37:36;;;;;;;6.03;4.40;;;12.40;92.30;;;;;;5109911;28;21091;-72
2023/05/04 06:40:04;;;;;;;7.10;5.53;;;12.50;92.10;;;;;;5108921;27;20750;-72
2023/05/04 06:42:30;;;;;;;9.73;5.40;;;12.50;91.90;;;;;;5109562;28;20625;-72
2023/05/04 06:44:57;;;;;;;6.53;4.80;;;12.60;91.40;;;;;;5107860;28;20640;-72
2023/05/04 06:47:25;;;;;;;4.20;3.80;;;12.70;91.70;;;;;;5109027;27;20650;-72
2023/05/04 06:49:53;;;;;;;5.17;4.30;;;12.80;91.40;;;;;;5109022;28;20626;-72
2023/05/04 06:52:20;;;;;;;7.97;4.20;;;13.00;91.60;;;;;;5109275;28;21004;-72
2023/05/04 06:54:47;;;;;;;7.20;4.27;;;13.10;90.90;;;;;;5109396;28;20622;-72
2023/05/04 06:57:13;;;;;;;5.90;4.37;;;13.30;91.00;;;;;;5108979;28;20760;-72
2023/05/04 06:59:40;;;;;;;6.60;4.43;;;13.40;90.40;;;;;;5108459;28;20664;-72
2023/05/04 07:02:07;;;;;;;5.10;3.83;;;13.40;90.60;;;;;;5108313;28;20658;-72
2023/05/04 07:04:34;;;;;;;5.43;4.53;;;13.50;90.60;;;;;;5109211;28;20625;-72
2023/05/04 07:07:03;;;;;;;5.20;3.90;;;13.70;90.60;;;;;;5108817;28;20650;-72
2023/05/04 07:09:30;;;;;;;8.23;5.80;;;13.90;90.00;;;;;;5108347;28;20626;-72
2023/05/04 07:11:56;;;;;;;5.30;3.90;;;13.90;89.30;;;;;;5106870;27;20649;-72
2023/05/04 07:14:23;;;;;;;5.13;3.93;;;13.90;89.20;;;;;;5107898;28;20615;-72
2023/05/04 07:16:52;;;;;;;5.83;4.53;;;14.00;88.50;;;;;;5109770;27;20655;-72
2023/05/04 07:19:24;;;;;;;4.53;4.13;;;14.10;89.80;;;;;;5116789;27;21255;-72
2023/05/04 07:21:51;;;;;;;4.20;3.73;;;14.30;89.10;;;;;;5118190;27;20643;-72
2023/05/04 07:24:22;;;;;;;5.60;4.87;;;14.30;88.50;;;;;;5116627;27;20643;-72
2023/05/04 07:26:49;;;;;;;6.33;4.50;;;14.60;88.90;;;;;;5117144;27;21003;-72
2023/05/04 07:29:16;;;;;;;3.50;3.17;;;14.60;88.00;;;;;;5117188;27;20733;-72
2023/05/04 07:31:43;;;;;;;8.57;3.43;;;14.70;86.40;;;;;;5116596;27;20681;-72
2023/05/04 07:34:09;;;;;;;9.47;5.03;;;14.90;85.80;;;;;;5107521;27;20982;-72
2023/05/04 07:36:38;;;;;;;5.23;4.07;;;14.90;86.00;;;;;;5104431;28;20647;-72
2023/05/04 07:39:06;;;;;;;8.00;4.83;;;15.00;86.00;;;;;;5106334;28;20638;-72
2023/05/04 07:41:35;;;;;;;5.07;4.03;;;15.20;85.00;;;;;;5106599;28;20745;-72
2023/05/04 07:44:04;;;;;;;4.70;2.77;;;15.30;83.00;;;;;;5105759;28;20747;-72
2023/05/04 07:46:31;;;;;;;6.17;3.90;;;15.30;83.80;;;;;;5107418;28;20818;-72
2023/05/04 07:48:58;;;;;;;4.33;3.43;;;15.40;84.20;;;;;;5106515;28;20958;-73
2023/05/04 07:51:24;;;;;;;3.20;3.00;;;15.50;83.30;;;;;;5108553;28;20651;-73
2023/05/04 07:53:51;;;;;;;10.63;3.80;;;15.60;82.50;;;;;;5108246;28;20728;-72
2023/05/04 07:56:18;;;;;;;5.57;3.87;;;15.80;81.10;;;;;;5107695;28;20855;-72
2023/05/04 07:58:46;;;;;;;4.03;3.40;;;15.90;81.20;;;;;;5107812;28;20629;-73
2023/05/04 08:01:13;;;;;;;5.23;3.87;;;16.00;81.10;;;;;;5107763;28;20672;-71
2023/05/04 08:03:40;;;;;;;6.43;4.07;;;16.00;80.00;;;;;;5108418;28;21162;-71
2023/05/04 08:06:08;;;;;;;3.83;3.53;;;16.20;80.60;;;;;;5107084;28;21228;-71
2023/05/04 08:08:35;;;;;;;4.40;3.73;;;16.20;79.30;;;;;;5107319;28;20625;-72
2023/05/04 08:11:01;;;;;;;3.57;2.57;;;16.20;81.00;;;;;;5107466;28;20660;-72
2023/05/04 08:13:29;;;;;;;7.10;3.80;;;16.30;77.90;;;;;;5108291;28;20640;-71
2023/05/04 08:15:59;;;;;;;4.10;3.17;;;16.40;79.20;;;;;;5102611;28;20655;-72
2023/05/04 08:18:27;;;;;;;5.33;3.87;;;16.60;77.20;;;;;;5105637;28;20630;-71
2023/05/04 08:20:54;;;;;;;4.00;3.70;;;16.70;77.70;;;;;;5105899;28;20673;-72
2023/05/04 08:23:21;;;;;;;4.87;3.00;;;16.70;77.10;;;;;;5106458;28;20622;-71
2023/05/04 08:25:47;;;;;;;3.03;2.70;;;16.80;77.20;;;;;;5106857;28;20646;-71
2023/05/04 08:28:14;;;;;;;3.50;3.07;;;17.00;76.20;;;;;;5106977;28;20633;-71
2023/05/04 08:30:41;;;;;;;3.20;2.87;;;17.10;73.30;;;;;;5106325;28;20649;-71
2023/05/04 08:33:09;;;;;;;4.07;3.17;;;17.20;75.00;;;;;;5107576;28;20631;-71
2023/05/04 08:35:36;;;;;;;5.03;3.80;;;17.40;73.70;;;;;;5107872;28;20649;-71
2023/05/04 08:38:03;;;;;;;3.30;3.00;;;17.50;71.10;;;;;;5107059;28;20618;-71
2023/05/04 08:40:30;;;;;;;4.10;3.70;;;17.40;72.90;;;;;;5107143;28;20663;-71
2023/05/04 08:42:57;;;;;;;4.67;3.50;;;17.40;75.30;;;;;;5107841;28;20616;-71
2023/05/04 08:45:25;;;;;;;4.20;3.60;;;17.60;73.70;;;;;;5106360;28;20700;-71
2023/05/04 08:47:52;;;;;;;4.30;3.60;;;17.70;73.30;;;;;;5107807;28;20651;-72
2023/05/04 08:50:20;;;;;;;3.70;2.77;;;17.70;73.40;;;;;;5106534;28;20614;-71
2023/05/04 08:52:47;;;;;;;3.70;3.40;;;17.90;73.80;;;;;;5107808;28;20625;-71
2023/05/04 08:55:15;;;;;;;4.20;3.00;;;18.00;71.50;;;;;;5107729;28;20620;-72
2023/05/04 08:57:43;;;;;;;3.30;3.00;;;18.00;70.10;;;;;;5107833;28;20706;-72
2023/05/04 09:00:12;;;;;;;4.93;3.70;;;18.10;69.20;;;;;;5106892;28;20744;-71
2023/05/04 09:02:39;;;;;;;3.40;3.10;;;18.10;69.80;;;;;;5107711;28;20964;-72
2023/05/04 09:05:07;;;;;;;3.77;3.10;;;18.10;68.70;;;;;;5107264;28;20646;-72
2023/05/04 09:07:35;;;;;;;3.90;3.30;;;18.30;71.90;;;;;;5108174;28;20631;-72
2023/05/04 09:10:03;;;;;;;4.00;3.70;;;18.40;69.50;;;;;;5106936;28;20622;-71
2023/05/04 09:12:30;;;;;;;3.87;3.20;;;18.40;68.60;;;;;;5107966;28;20966;-72
2023/05/04 09:14:57;;;;;;;3.50;3.20;;;18.30;71.70;;;;;;5107465;28;20627;-71
2023/05/04 09:17:26;;;;;;;3.80;3.47;;;18.50;70.80;;;;;;5109911;28;20694;-71
2023/05/04 09:19:59;;;;;;;4.23;3.57;;;18.70;69.70;;;;;;5110279;28;20667;-72
2023/05/04 09:22:26;;;;;;;3.70;3.40;;;18.80;68.20;;;;;;5111599;28;20683;-72
2023/05/04 09:25:04;;;;;;;4.37;4.00;;;18.80;67.00;;;;;;5111108;28;20614;-71
2023/05/04 09:27:31;;;;;;;4.90;3.53;;;18.80;66.90;;;;;;5111248;28;20945;-71
2023/05/04 09:29:58;;;;;;;4.60;3.43;;;19.00;64.40;;;;;;5109668;28;20647;-71
2023/05/04 09:32:25;;;;;;;3.50;3.20;;;19.00;64.70;;;;;;5110960;28;20659;-71
2023/05/04 09:34:53;;;;;;;4.03;3.10;;;19.00;65.80;;;;;;5110969;28;20966;-71
2023/05/04 09:37:20;;;;;;;3.30;2.90;;;19.20;67.30;;;;;;5110878;28;20658;-71
2023/05/04 09:39:55;;;;;;;4.13;3.27;;;19.30;65.60;;;;;;5110031;28;20656;-71
2023/05/04 09:42:23;;;;;;;2.87;2.67;;;19.30;64.80;;;;;;5110288;28;20659;-71
2023/05/04 09:45:00;;;;;;;4.10;3.67;;;19.40;64.40;;;;;;5109131;28;20620;-71
2023/05/04 09:47:38;;;;;;;3.33;3.03;;;19.60;63.10;;;;;;5109764;28;20675;-71
2023/05/04 09:50:15;;;;;;;3.23;3.03;;;19.60;64.90;;;;;;5110271;28;20939;-71
2023/05/04 09:52:43;;;;;;;3.60;3.30;;;19.70;65.70;;;;;;5110628;28;20619;-71
2023/05/04 09:55:13;;;;;;;3.27;2.90;;;19.80;63.20;;;;;;5109896;28;20612;-71
2023/05/04 09:57:42;;;;;;;3.20;2.90;;;19.80;63.40;;;;;;5110510;27;20611;-71
2023/05/04 10:00:11;;;;;;;3.20;2.60;;;19.80;61.80;;;;;;5109793;28;20652;-71
2023/05/04 10:02:38;;;;;;;2.77;2.57;;;19.90;62.00;;;;;;5110260;28;21226;-71
2023/05/04 10:05:08;;;;;;;3.87;2.97;;;20.00;60.20;;;;;;5110350;28;21100;-71
2023/05/04 10:07:35;;;;;;;3.43;2.77;;;20.20;61.90;;;;;;5109781;28;20624;-71
2023/05/04 10:10:02;;;;;;;2.83;2.40;;;20.30;58.30;;;;;;5109512;28;20624;-71
2023/05/04 10:12:30;;;;;;;3.50;2.93;;;20.30;57.50;;;;;;5110193;28;20631;-71
2023/05/04 10:14:57;;;;;;;2.57;2.37;;;20.60;58.60;;;;;;5110288;28;20980;-71
2023/05/04 10:17:37;;;;;;;2.80;2.60;;;20.60;56.70;;;;;;5109903;27;21252;-71
2023/05/04 10:20:18;;;;;;;2.00;1.90;;;20.50;56.40;;;;;;5108645;28;20659;-72
2023/05/04 10:23:03;;;;;;;2.93;2.60;;;20.60;57.40;;;;;;5110086;28;20715;-72
2023/05/04 10:25:52;;;;;;;2.90;2.60;;;21.00;56.40;;;;;;5110000;28;20735;-72
2023/05/04 10:28:30;;;;;;;3.33;2.67;;;21.00;53.90;;;;;;5108337;28;20620;-72
2023/05/04 10:30:58;;;;;;;3.40;2.97;;;21.00;56.50;;;;;;5109381;28;20644;-72
2023/05/04 10:33:25;;;;;;;2.10;1.90;;;21.10;55.70;;;;;;5103353;28;20924;-72
2023/05/04 10:35:52;;;;;;;3.20;2.90;;;21.20;55.00;;;;;;5091496;28;20655;-72
2023/05/04 10:38:19;;;;;;;2.23;2.10;;;21.40;54.70;;;;;;5109134;28;20616;-72
2023/05/04 10:40:49;;;;;;;3.40;2.70;;;21.50;54.50;;;;;;5107694;28;21223;-73
2023/05/04 10:43:23;;;;;;;3.57;2.30;;;21.70;55.70;;;;;;5108331;28;20624;-72
2023/05/04 10:45:51;;;;;;;2.60;2.17;;;22.00;53.50;;;;;;5107749;28;20746;-72
2023/05/04 10:48:18;;;;;;;2.30;2.10;;;21.90;53.10;;;;;;5109196;28;20626;-72
2023/05/04 10:50:46;;;;;;;2.27;2.17;;;21.90;53.80;;;;;;5108957;27;20644;-72
2023/05/04 10:53:14;;;;;;;2.30;2.10;;;21.80;54.00;;;;;;5109168;28;20627;-72
2023/05/04 10:55:41;;;;;;;4.17;2.70;;;22.20;55.90;;;;;;5108969;28;20725;-72
2023/05/04 10:58:10;;;;;;;2.90;2.70;;;22.40;53.70;;;;;;5109618;28;20616;-72
2023/05/04 11:00:39;;;;;;;3.30;2.67;;;22.50;53.30;;;;;;5088005;28;20665;-72
2023/05/04 11:03:07;;;;;;;3.77;2.90;;;22.70;52.20;;;;;;5106584;28;20637;-72
2023/05/04 11:05:41;;;;;;;2.80;2.50;;;22.60;51.00;;;;;;5108914;28;20837;-72
2023/05/04 11:08:18;;;;;;;2.33;1.87;;;22.80;52.20;;;;;;5106918;28;20702;-72
2023/05/04 11:10:46;;;;;;;2.63;2.43;;;22.90;51.60;;;;;;5108842;28;20658;-72
2023/05/04 11:13:14;;;;;;;2.70;2.50;;;23.00;51.00;;;;;;5097779;28;21209;-72
2023/05/04 11:15:47;;;;;;;2.73;2.53;;;22.90;50.80;;;;;;5088563;28;20660;-71
2023/05/04 11:18:14;;;;;;;2.93;2.73;;;23.40;51.50;;;;;;5099361;28;20612;-69
2023/05/04 11:20:41;;;;;;;2.50;2.30;;;23.60;50.20;;;;;;5107216;28;20768;-69
2023/05/04 11:23:09;;;;;;;3.03;2.80;;;23.70;50.60;;;;;;5108886;28;20624;-69
2023/05/04 11:25:37;;;;;;;3.07;1.97;;;23.90;49.30;;;;;;5108329;28;20640;-69
2023/05/04 11:28:04;;;;;;;1.80;1.70;;;24.20;49.80;;;;;;5090325;28;20624;-69
2023/05/04 11:30:33;;;;;;;2.33;2.10;;;24.30;48.00;;;;;;5093484;28;20656;-69
2023/05/04 11:33:02;;;;;;;2.40;2.03;;;24.40;47.90;;;;;;5107582;28;20630;-69
2023/05/04 11:35:28;;;;;;;2.60;2.37;;;24.60;47.30;;;;;;5108392;28;20650;-69
2023/05/04 11:37:56;;;;;;;2.40;2.03;;;24.70;47.40;;;;;;5107907;28;20652;-69
2023/05/04 11:40:25;;;;;;;2.63;2.40;;;25.30;47.80;;;;;;5106606;28;20659;-69
2023/05/04 11:42:53;;;;;;;2.90;2.60;;;25.80;47.40;;;;;;5108257;28;20631;-68
2023/05/04 11:45:23;;;;;;;3.30;3.00;;;26.00;46.10;;;;;;5107481;28;20673;-68
2023/05/04 11:47:51;;;;;;;2.40;2.13;;;26.00;45.90;;;;;;5097147;28;20670;-69
2023/05/04 11:50:20;;;;;;;3.10;2.80;;;26.20;46.00;;;;;;5097387;28;20622;-68
2023/05/04 11:52:48;;;;;;;2.67;2.47;;;26.50;45.50;;;;;;5108586;28;21177;-68
2023/05/04 11:55:26;;;;;;;3.73;2.57;;;27.00;46.10;;;;;;5106169;28;20633;-69
2023/05/04 11:57:57;;;;;;;2.20;2.00;;;27.40;46.10;;;;;;5107983;28;20732;-69
2023/05/04 12:00:36;;;;;;;2.87;2.67;;;28.00;44.70;;;;;;5106234;28;20693;-69
2023/05/04 12:03:04;;;;;;;2.70;2.50;;;28.50;43.70;;;;;;5107997;28;20627;-69
2023/05/04 12:05:33;;;;;;;2.27;2.13;;;29.20;41.90;;;;;;5103422;28;20669;-69
2023/05/04 12:08:00;;;;;;;3.03;2.73;;;30.60;42.30;;;;;;5093156;28;20717;-69
2023/05/04 12:10:28;;;;;;;2.20;2.10;;;30.50;40.70;;;;;;5086669;28;20705;-69
2023/05/04 12:12:55;;;;;;;2.70;2.50;;;31.20;39.80;;;;;;5090557;28;21196;-69
2023/05/04 12:15:29;;;;;;;3.90;3.00;;;31.20;40.20;;;;;;5098189;28;20621;-69
2023/05/04 12:17:56;;;;;;;2.10;2.00;;;31.60;39.80;;;;;;5104657;28;21016;-69
2023/05/04 12:20:24;;;;;;;3.10;2.53;;;31.80;39.90;;;;;;5105831;28;20651;-69
2023/05/04 12:22:52;;;;;;;2.60;2.40;;;32.10;38.30;;;;;;5097060;28;20620;-69
2023/05/04 12:25:19;;;;;;;2.40;2.30;;;32.70;36.80;;;;;;5096272;28;20655;-69
2023/05/04 12:27:46;;;;;;;3.30;2.80;;;33.30;35.20;;;;;;5105745;28;20619;-69
2023/05/04 12:30:13;;;;;;;2.30;1.63;;;33.20;33.30;;;;;;5091376;28;20612;-69
2023/05/04 12:32:41;;;;;;;2.30;2.20;;;33.20;34.30;;;;;;5097754;28;20671;-69
2023/05/04 12:35:08;;;;;;;2.60;2.40;;;33.20;33.70;;;;;;5092976;28;21008;-69
2023/05/04 12:37:35;;;;;;;3.50;3.23;;;33.60;34.10;;;;;;5102645;28;20651;-69
2023/05/04 12:40:03;;;;;;;2.87;2.67;;;34.20;33.90;;;;;;5097925;28;20646;-69
2023/05/04 12:42:30;;;;;;;3.00;2.80;;;33.80;34.30;;;;;;5104111;28;20743;-69
2023/05/04 12:44:57;;;;;;;2.60;2.40;;;33.70;34.60;;;;;;5106212;28;20991;-69
2023/05/04 12:47:24;;;;;;;2.83;2.63;;;33.20;34.20;;;;;;5102325;28;20679;-69
2023/05/04 12:49:51;;;;;;;2.33;2.17;;;32.90;35.80;;;;;;5106815;28;20631;-69
2023/05/04 12:52:18;;;;;;;3.60;3.30;;;32.50;35.00;;;;;;5109056;28;20678;-69